Terminal Aerodrome Forecast
Issued by NWS Jackson, MS

Home | Current Version | Previous Version | Text Only | Print | Product List | Glossary On
Versions: 1 2 3 4 5 6 7 8 9 10 11 12 13 14 15 16 17 18 19
932
FTUS44 KMEG 061131
TAFTUP
TAF
KTUP 061131Z 0612/0712 21005KT 6SM -SHRA OVC005
      TEMPO 0612/0614 3SM SHRA
     FM061500 34011KT P6SM OVC008
     FM062000 36009KT P6SM OVC012
     FM070200 01005KT P6SM OVC010=

USA.gov is the U.S. government's official web portal to all federal, state and local government web resources and services.